Amanda Park, WA

5:11 PM PDT on August 29, 2014 (GMT -0700)
RAWS BLACK KNOB WA US | Change Station
CLOSE
Current Station
Personal Weather Station
Location: Amanda Park, WA
Elevation: 618 ft
Nearby Weather Stations

Elev 618 ft 47.41 °N, 124.10 °W | Updated 40 minutes ago

Partly Cloudy
Partly Cloudy
69 °F
Feels Like 69 °F
N
4
Wind Variable Wind from South
Gusts 9.0 mph

Today
High -- | Low -- °F
--% Chance of Precip.
Yesterday
High -- | Low -- °F
Precip. -- in
6:31 AM 8:01 PM
Waxing Crescent, 17% visible
Pressure 30.00 in
Visibility 8.0 miles
Clouds Clear
Dew Point 58 °F
Humidity 69%
Rainfall 0.05 in
Snow Depth Not available.
UV 3 out of 12
Pollen 2.90 out of 12
PM2.5 Good
Flu Activity Not available.
METAR KHQM 292353Z AUTO 22009KT 8SM CLR 19/16 A2999 RMK AO2 SLP159 60001 T01940161 10200 20161 58004

More Conditions Fewer Conditions

Pressure 30.00 in
Visibility 8.0 miles
Clouds Clear
Dew Point 58 °F
Humidity 69%
Rainfall 0.05 in
Snow Depth Not available.
UV 3 out of 12
Pollen 2.90 out of 12
PM2.5 Good
Flu Activity Not available.
METAR KHQM 292353Z AUTO 22009KT 8SM CLR 19/16 A2999 RMK AO2 SLP159 60001 T01940161 10200 20161 58004

More Conditions Fewer Conditions

10-Day Weather Forecast

Almanac

Astronomy

Aug. 29, 2014 Rise Set
Actual Time 6:31 AM PDT 8:01 PM PDT
Civil Twilight 5:58 AM PDT 8:33 PM PDT
Nautical Twilight 5:19 AM PDT 9:12 PM PDT
Astronomical Twilight 4:37 AM PDT 9:54 PM PDT
Moon 10:45 AM PDT (8/29) 9:42 PM PDT (8/29)
Length of Visible Light 14h 34m
Length of Day
13h 30m
Tomorrow will be 3m 16s shorter.
Waxing Crescent, 17% of the Moon is Illuminated
Today
Waxing Crescent
Sep 2
First Quarter
Sep 8
Full
Sep 15
Last Quarter
Sep 24
New

Today's Extremes

State Highs State Lows

Community

WunderPhotos

Upload Photos

1,748,382 photos uploaded!

Nearby

Air Quality

  Air Quality AQ Index Pollutant
Yesterday Good
PM2.5
Current Good
PM2.5

Snow Depth

Station Depth Elevation
Dungeness 0 in 4100 ft
Burnt Mountain 0 in 4200 ft
Alpine Meadows 0 in 3500 ft
Meadows Pass 0 in 3500 ft
Olallie Meadows 3 in 3700 ft

Earthquake Activity

City Distance Mag. Time & Date
No recent earthquake activity has been reported nearby.
Minimum magnitude displayed is 2.5.

Coastal Water Temperatures

Place Temperature
Westport, WA 55.0 °F
Astoria, OR 69.1 °F
La Push, WA 48.0 °F

Nearby Weather Stations